createdAt,value
2023-04-24T00:01:08.470Z,68.40
2023-04-24T00:03:35.883Z,68.30
2023-04-24T00:06:03.714Z,68.30
2023-04-24T00:08:30.784Z,68.30
2023-04-24T00:10:57.914Z,68.30
2023-04-24T00:13:24.960Z,68.30
2023-04-24T00:15:51.630Z,68.20
2023-04-24T00:18:18.532Z,68.20
2023-04-24T00:20:45.446Z,68.20
2023-04-24T00:23:12.458Z,68.30
2023-04-24T00:25:39.430Z,68.30
2023-04-24T00:28:06.157Z,68.30
2023-04-24T00:30:33.267Z,68.40
2023-04-24T00:33:00.122Z,68.40
2023-04-24T00:35:26.877Z,68.20
2023-04-24T00:37:53.605Z,68.20
2023-04-24T00:40:20.518Z,68.30
2023-04-24T00:42:47.297Z,68.20
2023-04-24T00:45:14.366Z,68.20
2023-04-24T00:47:42.898Z,68.20
2023-04-24T00:50:10.145Z,68.30
2023-04-24T00:52:37.056Z,68.20
2023-04-24T00:55:04.149Z,68.20
2023-04-24T00:57:31.681Z,68.30
2023-04-24T00:59:59.124Z,68.30
2023-04-24T01:02:26.613Z,68.40
2023-04-24T01:04:53.418Z,68.40
2023-04-24T01:07:21.895Z,68.40
2023-04-24T01:09:52.092Z,68.30
2023-04-24T01:12:19.549Z,68.30
2023-04-24T01:14:46.658Z,68.40
2023-04-24T01:17:13.537Z,68.60
2023-04-24T01:19:41.436Z,68.60
2023-04-24T01:22:13.800Z,68.70
2023-04-24T01:24:40.824Z,68.80
2023-04-24T01:27:08.819Z,68.70
2023-04-24T01:29:36.361Z,68.70
2023-04-24T01:32:04.797Z,68.70
2023-04-24T01:34:32.101Z,68.50
2023-04-24T01:36:59.036Z,68.50
2023-04-24T01:39:26.780Z,68.30
2023-04-24T01:41:54.572Z,68.30
2023-04-24T01:44:21.830Z,68.50
2023-04-24T01:46:48.698Z,68.30
2023-04-24T01:49:15.705Z,68.30
2023-04-24T01:51:42.478Z,68.20
2023-04-24T01:54:09.328Z,68.20
2023-04-24T01:56:37.346Z,68.30
2023-04-24T01:59:05.079Z,68.20
2023-04-24T02:01:38.329Z,68.20
2023-04-24T02:04:09.363Z,68.40
2023-04-24T02:06:36.589Z,68.20
2023-04-24T02:09:04.394Z,68.10
2023-04-24T02:11:32.345Z,68.10
2023-04-24T02:13:59.058Z,68.20
2023-04-24T02:16:26.131Z,68.10
2023-04-24T02:18:52.875Z,68.10
2023-04-24T02:21:19.597Z,68.10
2023-04-24T02:23:46.585Z,68.10
2023-04-24T02:26:13.860Z,68.10
2023-04-24T02:28:40.653Z,68.10
2023-04-24T02:31:07.532Z,68.00
2023-04-24T02:33:34.483Z,67.90
2023-04-24T02:36:01.313Z,68.00
2023-04-24T02:38:28.240Z,68.10
2023-04-24T02:40:54.973Z,67.90
2023-04-24T02:43:21.734Z,67.90
2023-04-24T02:45:48.733Z,67.90
2023-04-24T02:48:15.721Z,67.80
2023-04-24T02:50:42.398Z,67.90
2023-04-24T02:53:09.222Z,67.90
2023-04-24T02:55:36.640Z,68.00
2023-04-24T02:58:03.518Z,67.90
2023-04-24T03:00:30.842Z,67.90
2023-04-24T03:02:57.682Z,67.80
2023-04-24T03:05:24.836Z,67.90
2023-04-24T03:07:53.543Z,67.80
2023-04-24T03:10:20.528Z,67.80
2023-04-24T03:12:47.319Z,67.80
2023-04-24T03:15:14.037Z,67.80
2023-04-24T03:17:41.025Z,67.80
2023-04-24T03:20:09.335Z,67.90
2023-04-24T03:22:36.063Z,67.70
2023-04-24T03:25:03.246Z,68.00
2023-04-24T03:27:30.146Z,68.00
2023-04-24T03:29:57.163Z,68.10
2023-04-24T03:32:24.142Z,68.10
2023-04-24T03:34:51.056Z,68.20
2023-04-24T03:37:18.032Z,68.10
2023-04-24T03:39:45.604Z,68.20
2023-04-24T03:42:12.513Z,68.30
2023-04-24T03:44:40.038Z,68.30
2023-04-24T03:47:06.746Z,68.40
2023-04-24T03:49:33.411Z,68.30
2023-04-24T03:52:00.079Z,68.40
2023-04-24T03:54:26.730Z,68.30
2023-04-24T03:56:53.601Z,68.20
2023-04-24T03:59:20.267Z,68.20
2023-04-24T04:01:47.392Z,68.20
2023-04-24T04:04:14.127Z,68.20
2023-04-24T04:06:41.082Z,68.10
2023-04-24T04:09:08.329Z,68.00
2023-04-24T04:11:36.281Z,68.00
2023-04-24T04:14:03.111Z,67.80
2023-04-24T04:16:29.854Z,67.80
2023-04-24T04:18:56.748Z,67.90
2023-04-24T04:21:23.598Z,68.00
2023-04-24T04:23:50.326Z,68.10
2023-04-24T04:26:16.986Z,68.20
2023-04-24T04:28:45.425Z,68.20
2023-04-24T04:31:12.507Z,68.40
2023-04-24T04:33:40.511Z,68.50
2023-04-24T04:36:07.316Z,68.40
2023-04-24T04:38:34.617Z,68.40
2023-04-24T04:41:01.588Z,68.40
2023-04-24T04:43:28.171Z,68.50
2023-04-24T04:45:55.914Z,68.50
2023-04-24T04:48:23.254Z,68.60
2023-04-24T04:50:49.906Z,68.60
2023-04-24T04:53:16.612Z,68.50
2023-04-24T04:55:43.540Z,68.50
2023-04-24T04:58:10.244Z,68.40
2023-04-24T05:00:38.592Z,68.60
2023-04-24T05:03:19.278Z,68.50
2023-04-24T05:05:47.230Z,68.50
2023-04-24T05:08:25.793Z,68.50
2023-04-24T05:10:53.645Z,68.50
2023-04-24T05:13:28.175Z,68.40
2023-04-24T05:15:59.147Z,68.50
2023-04-24T05:18:25.775Z,68.50
2023-04-24T05:20:53.466Z,68.60
2023-04-24T05:23:20.409Z,68.80
2023-04-24T05:25:47.355Z,68.70
2023-04-24T05:28:14.263Z,68.80
2023-04-24T05:30:43.244Z,68.70
2023-04-24T05:33:11.028Z,68.60
2023-04-24T05:35:37.979Z,68.60
2023-04-24T05:38:04.771Z,68.30
2023-04-24T05:40:32.611Z,68.40
2023-04-24T05:42:59.264Z,68.50
2023-04-24T05:45:26.062Z,68.40
2023-04-24T05:47:53.554Z,68.40
2023-04-24T05:50:20.860Z,68.50
2023-04-24T05:52:47.507Z,68.30
2023-04-24T05:55:14.531Z,68.30
2023-04-24T05:57:41.444Z,68.70
2023-04-24T06:00:09.225Z,68.60
2023-04-24T06:02:36.260Z,68.40
2023-04-24T06:05:03.336Z,68.50
2023-04-24T06:07:30.180Z,68.50
2023-04-24T06:09:57.702Z,68.20
2023-04-24T06:12:24.402Z,68.20
2023-04-24T06:14:51.307Z,68.40
2023-04-24T06:17:18.078Z,68.20
2023-04-24T06:19:45.024Z,68.30
2023-04-24T06:22:11.865Z,68.30
2023-04-24T06:24:38.458Z,68.20
2023-04-24T06:27:05.314Z,68.30
2023-04-24T06:29:32.010Z,68.30
2023-04-24T06:31:59.534Z,68.40
2023-04-24T06:34:26.502Z,68.30
2023-04-24T06:36:53.217Z,68.40
2023-04-24T06:39:19.883Z,68.40
2023-04-24T06:41:46.557Z,68.40
2023-04-24T06:44:15.504Z,68.40
2023-04-24T06:46:42.650Z,68.20
2023-04-24T06:49:09.332Z,68.30
2023-04-24T06:51:36.074Z,68.20
2023-04-24T06:54:03.014Z,68.10
2023-04-24T06:56:32.576Z,68.10
2023-04-24T06:58:59.285Z,68.10
2023-04-24T07:01:26.092Z,68.10
2023-04-24T07:03:53.374Z,68.20
2023-04-24T07:06:23.601Z,68.00
2023-04-24T07:08:50.318Z,68.10
2023-04-24T07:11:17.009Z,68.20
2023-04-24T07:13:44.381Z,68.10
2023-04-24T07:16:11.434Z,68.20
2023-04-24T07:18:38.446Z,68.20
2023-04-24T07:21:05.533Z,68.10
2023-04-24T07:23:32.377Z,68.10
2023-04-24T07:25:59.228Z,68.10
2023-04-24T07:28:26.416Z,68.20
2023-04-24T07:30:55.019Z,68.10
2023-04-24T07:33:21.954Z,68.20
2023-04-24T07:35:48.912Z,68.30
2023-04-24T07:38:15.970Z,68.30
2023-04-24T07:40:43.183Z,68.30
2023-04-24T07:43:09.835Z,68.30
2023-04-24T07:45:38.469Z,68.30
2023-04-24T07:48:05.558Z,68.10
2023-04-24T07:50:32.623Z,68.00
2023-04-24T07:52:59.345Z,68.20
2023-04-24T07:55:28.192Z,68.10
2023-04-24T07:57:55.096Z,68.10
2023-04-24T08:00:22.025Z,68.10
2023-04-24T08:02:49.081Z,68.10
2023-04-24T08:05:16.021Z,68.00
2023-04-24T08:07:47.302Z,68.00
2023-04-24T08:10:14.426Z,68.10
2023-04-24T08:12:42.200Z,67.90
2023-04-24T08:15:09.337Z,67.90
2023-04-24T08:17:36.712Z,67.90
2023-04-24T08:20:11.096Z,67.90
2023-04-24T08:22:37.777Z,67.80
2023-04-24T08:25:04.788Z,67.60
2023-04-24T08:27:31.517Z,67.60
2023-04-24T08:29:59.394Z,67.60
2023-04-24T08:32:28.773Z,67.60
2023-04-24T08:34:57.270Z,67.50
2023-04-24T08:37:24.820Z,67.50
2023-04-24T08:39:52.095Z,67.50
2023-04-24T08:42:19.923Z,67.50
2023-04-24T08:44:46.736Z,67.50
2023-04-24T08:47:15.802Z,67.40
2023-04-24T08:49:44.332Z,67.40
2023-04-24T08:52:13.884Z,67.40
2023-04-24T08:54:42.137Z,67.40
2023-04-24T08:57:12.693Z,67.30
2023-04-24T08:59:39.648Z,67.20
2023-04-24T09:02:07.420Z,67.20
2023-04-24T09:04:34.960Z,67.20
2023-04-24T09:07:02.279Z,67.20
2023-04-24T09:09:33.343Z,67.10
2023-04-24T09:12:01.258Z,67.00
2023-04-24T09:14:29.009Z,67.00
2023-04-24T09:16:55.747Z,66.90
2023-04-24T09:19:23.325Z,66.90
2023-04-24T09:21:50.036Z,66.90
2023-04-24T09:24:23.534Z,66.80
2023-04-24T09:26:58.747Z,66.70
2023-04-24T09:29:25.811Z,66.80
2023-04-24T09:31:52.572Z,66.80
2023-04-24T09:34:24.295Z,66.80
2023-04-24T09:36:51.587Z,66.80
2023-04-24T09:39:18.726Z,66.80
2023-04-24T09:41:46.734Z,66.80
2023-04-24T09:44:16.096Z,66.80
2023-04-24T09:46:44.536Z,66.70
2023-04-24T09:49:18.309Z,66.60
2023-04-24T09:51:45.004Z,66.50
2023-04-24T09:54:17.252Z,66.70
2023-04-24T09:56:46.176Z,66.60
2023-04-24T09:59:14.164Z,66.70
2023-04-24T10:01:43.658Z,66.70
2023-04-24T10:04:21.976Z,66.80
2023-04-24T10:06:50.253Z,66.80
2023-04-24T10:09:22.294Z,66.80
2023-04-24T10:11:51.376Z,66.70
2023-04-24T10:14:21.471Z,66.60
2023-04-24T10:16:48.995Z,66.70
2023-04-24T10:19:16.932Z,66.70
2023-04-24T10:21:47.333Z,66.80
2023-04-24T10:24:23.433Z,66.60
2023-04-24T10:26:50.213Z,66.60
2023-04-24T10:29:19.196Z,66.70
2023-04-24T10:31:49.108Z,66.70
2023-04-24T10:34:17.958Z,66.80
2023-04-24T10:36:49.283Z,66.80
2023-04-24T10:39:17.526Z,66.60
2023-04-24T10:41:44.324Z,66.80
2023-04-24T10:44:15.869Z,67.10
2023-04-24T10:46:48.516Z,66.90
2023-04-24T10:49:15.371Z,67.00
2023-04-24T10:51:49.356Z,67.20
2023-04-24T10:54:31.239Z,67.00
2023-04-24T10:57:23.474Z,66.80
2023-04-24T11:00:22.416Z,66.90
2023-04-24T11:02:51.308Z,66.70
2023-04-24T11:05:18.910Z,66.50
2023-04-24T11:08:22.080Z,66.30
2023-04-24T11:10:59.180Z,66.30
2023-04-24T11:13:28.612Z,66.20
2023-04-24T11:16:27.340Z,66.30
2023-04-24T11:19:10.742Z,66.20
2023-04-24T11:21:50.183Z,66.30
2023-04-24T11:24:38.816Z,66.40
2023-04-24T11:27:05.380Z,66.30
2023-04-24T11:29:58.635Z,66.90
2023-04-24T11:32:40.913Z,66.70
2023-04-24T11:35:20.088Z,66.70
2023-04-24T11:40:26.721Z,66.80
2023-04-24T11:42:56.488Z,66.60
2023-04-24T11:45:28.660Z,66.70
2023-04-24T11:47:55.342Z,66.50
2023-04-24T11:50:30.399Z,66.40
2023-04-24T11:52:57.568Z,66.00
2023-04-24T11:55:29.597Z,65.80
2023-04-24T11:57:58.720Z,65.80
2023-04-24T12:00:28.580Z,65.70
2023-04-24T12:03:12.763Z,65.50
2023-04-24T12:05:40.687Z,65.60
2023-04-24T12:08:07.723Z,65.90
2023-04-24T12:10:35.958Z,66.10
2023-04-24T12:13:03.134Z,66.10
2023-04-24T12:15:30.246Z,66.20
2023-04-24T12:17:57.696Z,66.30
2023-04-24T12:20:34.331Z,66.40
2023-04-24T12:23:02.332Z,66.50
2023-04-24T12:25:31.756Z,66.70
2023-04-24T12:28:04.542Z,66.80
2023-04-24T12:30:33.840Z,66.80
2023-04-24T12:33:01.717Z,66.90
2023-04-24T12:35:32.535Z,66.80
2023-04-24T12:38:14.872Z,67.00
2023-04-24T12:40:43.540Z,66.90
2023-04-24T12:43:20.802Z,67.40
2023-04-24T12:45:49.290Z,66.70
2023-04-24T12:48:16.144Z,67.00
2023-04-24T12:50:45.714Z,67.20
2023-04-24T12:53:13.437Z,66.90
2023-04-24T12:55:40.117Z,67.10
2023-04-24T12:58:06.792Z,66.90
2023-04-24T13:00:34.047Z,66.90
2023-04-24T13:03:01.057Z,66.60
2023-04-24T13:05:27.939Z,67.10
2023-04-24T13:07:54.744Z,67.00
2023-04-24T13:10:21.440Z,67.30
2023-04-24T13:12:48.126Z,66.90
2023-04-24T13:15:14.840Z,66.70
2023-04-24T13:17:41.529Z,66.60
2023-04-24T13:20:08.556Z,66.50
2023-04-24T13:22:35.222Z,66.50
2023-04-24T13:25:01.961Z,66.70
2023-04-24T13:27:28.644Z,66.50
2023-04-24T13:29:55.470Z,66.00
2023-04-24T13:32:22.389Z,66.30
2023-04-24T13:34:49.161Z,65.50
2023-04-24T13:37:15.859Z,65.20
2023-04-24T13:39:42.537Z,65.80
2023-04-24T13:42:09.864Z,65.40
2023-04-24T13:44:36.694Z,64.90
2023-04-24T13:47:03.611Z,65.40
2023-04-24T13:49:30.479Z,65.20
2023-04-24T13:51:57.536Z,65.40
2023-04-24T13:54:26.641Z,65.20
2023-04-24T13:56:53.966Z,65.90
2023-04-24T13:59:23.606Z,65.90
2023-04-24T14:01:50.549Z,65.10
2023-04-24T14:04:17.901Z,65.00
2023-04-24T14:06:45.323Z,64.80
2023-04-24T14:09:11.963Z,64.70
2023-04-24T14:11:38.931Z,64.50
2023-04-24T14:14:06.317Z,64.50
2023-04-24T14:16:33.106Z,64.40
2023-04-24T14:18:59.858Z,64.30
2023-04-24T14:21:26.494Z,63.90
2023-04-24T14:23:53.227Z,64.20
2023-04-24T14:26:20.727Z,64.20
2023-04-24T14:28:47.482Z,64.30
2023-04-24T14:31:14.269Z,64.40
2023-04-24T14:33:41.026Z,64.90
2023-04-24T14:36:07.806Z,64.60
2023-04-24T14:38:34.967Z,64.60
2023-04-24T14:41:06.860Z,64.20
2023-04-24T14:43:36.194Z,64.60
2023-04-24T14:46:03.932Z,64.50
2023-04-24T14:48:31.382Z,64.20
2023-04-24T14:50:58.458Z,64.60
2023-04-24T14:53:25.157Z,64.60
2023-04-24T14:55:51.855Z,64.70
2023-04-24T14:58:19.479Z,64.80
2023-04-24T15:00:46.270Z,65.00
2023-04-24T15:03:13.113Z,64.80
2023-04-24T15:05:40.367Z,65.00
2023-04-24T15:08:09.554Z,64.50
2023-04-24T15:10:36.305Z,64.90
2023-04-24T15:13:02.970Z,65.10
2023-04-24T15:15:29.715Z,64.90
2023-04-24T15:17:56.607Z,65.60
2023-04-24T15:20:23.378Z,65.50
2023-04-24T15:22:50.081Z,65.10
2023-04-24T15:25:16.751Z,65.10
2023-04-24T15:27:44.869Z,65.00
2023-04-24T15:30:12.377Z,64.30
2023-04-24T15:32:40.018Z,64.70
2023-04-24T15:35:09.756Z,64.80
2023-04-24T15:37:37.975Z,64.70
2023-04-24T15:40:06.569Z,65.10
2023-04-24T15:42:33.733Z,65.00
2023-04-24T15:45:00.451Z,64.80
2023-04-24T15:47:27.297Z,65.30
2023-04-24T15:49:54.544Z,64.70
2023-04-24T15:52:21.590Z,65.00
2023-04-24T15:54:48.527Z,64.60
2023-04-24T15:57:15.390Z,65.20
2023-04-24T15:59:42.564Z,65.10
2023-04-24T16:02:11.949Z,64.40
2023-04-24T16:04:39.096Z,64.00
2023-04-24T16:07:06.217Z,64.20
2023-04-24T16:09:32.822Z,65.00
2023-04-24T16:11:59.528Z,64.30
2023-04-24T16:14:26.970Z,64.40
2023-04-24T16:16:55.391Z,64.70
2023-04-24T16:19:22.222Z,64.80
2023-04-24T16:21:48.871Z,64.60
2023-04-24T16:24:15.538Z,63.80
2023-04-24T16:26:42.286Z,63.50
2023-04-24T16:29:08.885Z,63.60
2023-04-24T16:31:35.607Z,64.10
2023-04-24T16:34:02.287Z,63.90
2023-04-24T16:36:29.021Z,64.30
2023-04-24T16:38:55.936Z,63.80
2023-04-24T16:41:22.623Z,63.30
2023-04-24T16:43:49.295Z,63.40
2023-04-24T16:46:15.912Z,63.60
2023-04-24T16:48:42.664Z,63.90
2023-04-24T16:51:09.302Z,63.20
2023-04-24T16:53:36.004Z,63.40
2023-04-24T16:56:03.429Z,63.40
2023-04-24T16:58:30.841Z,63.60
2023-04-24T17:00:58.011Z,63.50
2023-04-24T17:03:25.075Z,63.50
2023-04-24T17:05:51.739Z,63.80
2023-04-24T17:08:18.451Z,63.90
2023-04-24T17:10:45.237Z,63.70
2023-04-24T17:13:11.874Z,63.70
2023-04-24T17:15:38.468Z,63.10
2023-04-24T17:18:05.956Z,63.80
2023-04-24T17:20:32.703Z,63.50
2023-04-24T17:22:59.756Z,63.90
2023-04-24T17:25:26.681Z,63.70
2023-04-24T17:27:53.429Z,63.50
2023-04-24T17:30:20.336Z,63.20
2023-04-24T17:32:47.002Z,63.80
2023-04-24T17:35:13.673Z,63.70
2023-04-24T17:37:40.861Z,63.80
2023-04-24T17:40:08.250Z,64.20
2023-04-24T17:42:38.269Z,64.30
2023-04-24T17:45:05.822Z,64.50
2023-04-24T17:47:32.472Z,64.60
2023-04-24T17:49:59.136Z,64.50
2023-04-24T17:52:25.719Z,64.30
2023-04-24T17:54:52.417Z,64.60
2023-04-24T17:57:19.108Z,64.30
2023-04-24T17:59:46.223Z,64.40
2023-04-24T18:02:12.888Z,64.20
2023-04-24T18:04:40.546Z,64.80
2023-04-24T18:07:07.349Z,64.80
2023-04-24T18:09:33.966Z,64.70
2023-04-24T18:12:01.612Z,65.10
2023-04-24T18:14:28.438Z,65.30
2023-04-24T18:16:56.865Z,64.80
2023-04-24T18:19:24.716Z,64.90
2023-04-24T18:21:51.448Z,65.00
2023-04-24T18:24:18.954Z,64.90
2023-04-24T18:26:45.604Z,64.80
2023-04-24T18:29:12.299Z,65.30
2023-04-24T18:31:38.970Z,65.40
2023-04-24T18:34:05.719Z,65.40
2023-04-24T18:36:33.147Z,65.30
2023-04-24T18:38:59.812Z,65.30
2023-04-24T18:41:26.562Z,65.50
2023-04-24T18:43:53.275Z,65.40
2023-04-24T18:46:20.046Z,65.40
2023-04-24T18:48:47.105Z,65.10
2023-04-24T18:51:13.919Z,65.40
2023-04-24T18:53:40.718Z,65.40
2023-04-24T18:56:07.501Z,65.40
2023-04-24T18:58:34.095Z,65.60
2023-04-24T19:01:00.899Z,65.60
2023-04-24T19:03:29.853Z,65.60
2023-04-24T19:05:56.720Z,65.70
2023-04-24T19:08:23.318Z,65.60
2023-04-24T19:10:51.131Z,65.70
2023-04-24T19:13:17.917Z,65.80
2023-04-24T19:15:44.517Z,65.80
2023-04-24T19:18:11.412Z,65.80
2023-04-24T19:20:38.174Z,65.70
2023-04-24T19:23:06.064Z,65.80
2023-04-24T19:25:32.837Z,65.90
2023-04-24T19:27:59.571Z,65.90
2023-04-24T19:30:26.240Z,65.90
2023-04-24T19:32:52.967Z,66.00
2023-04-24T19:35:19.594Z,65.90
2023-04-24T19:37:46.419Z,66.00
2023-04-24T19:40:13.566Z,66.10
2023-04-24T19:42:44.221Z,66.10
2023-04-24T19:45:12.629Z,66.00
2023-04-24T19:47:39.648Z,66.10
2023-04-24T19:50:07.667Z,66.20
2023-04-24T19:52:34.431Z,66.30
2023-04-24T19:55:01.089Z,66.30
2023-04-24T19:57:27.763Z,66.30
2023-04-24T19:59:54.384Z,66.20
2023-04-24T20:02:21.192Z,66.20
2023-04-24T20:04:48.031Z,66.30
2023-04-24T20:07:15.204Z,66.30
2023-04-24T20:09:41.813Z,66.20
2023-04-24T20:12:09.667Z,66.20
2023-04-24T20:14:36.587Z,66.20
2023-04-24T20:17:03.309Z,66.20
2023-04-24T20:19:30.112Z,66.30
2023-04-24T20:21:56.914Z,66.30
2023-04-24T20:24:23.648Z,66.30
2023-04-24T20:26:50.601Z,66.30
2023-04-24T20:29:17.278Z,66.20
2023-04-24T20:31:44.018Z,66.30
2023-04-24T20:34:10.641Z,66.40
2023-04-24T20:36:37.596Z,66.20
2023-04-24T20:39:06.508Z,66.30
2023-04-24T20:41:34.047Z,66.30
2023-04-24T20:44:01.079Z,66.30
2023-04-24T20:46:27.844Z,66.30
2023-04-24T20:48:54.600Z,66.30
2023-04-24T20:51:21.418Z,66.40
2023-04-24T20:53:49.429Z,66.40
2023-04-24T20:56:16.889Z,66.50
2023-04-24T20:58:46.831Z,66.40
2023-04-24T21:01:14.619Z,66.30
2023-04-24T21:03:41.650Z,66.40
2023-04-24T21:06:08.929Z,66.50
2023-04-24T21:08:37.676Z,66.40
2023-04-24T21:11:04.664Z,66.40
2023-04-24T21:13:31.289Z,66.40
2023-04-24T21:15:58.397Z,66.40
2023-04-24T21:18:26.077Z,66.40
2023-04-24T21:20:53.486Z,66.40
2023-04-24T21:23:20.264Z,66.40
2023-04-24T21:25:47.491Z,66.40
2023-04-24T21:28:14.401Z,66.40
2023-04-24T21:30:41.269Z,66.50
2023-04-24T21:33:07.933Z,66.40
2023-04-24T21:35:35.153Z,66.50
2023-04-24T21:38:02.049Z,66.50
2023-04-24T21:40:29.018Z,66.50
2023-04-24T21:42:55.928Z,66.50
2023-04-24T21:45:23.058Z,66.50
2023-04-24T21:47:49.792Z,66.60
2023-04-24T21:50:16.713Z,66.70
2023-04-24T21:52:43.468Z,66.70
2023-04-24T21:55:10.215Z,66.70
2023-04-24T21:57:37.019Z,66.70
2023-04-24T22:00:06.432Z,66.70
2023-04-24T22:02:33.844Z,66.70
2023-04-24T22:05:03.406Z,66.70
2023-04-24T22:07:30.431Z,66.70
2023-04-24T22:09:57.263Z,66.60
2023-04-24T22:12:23.984Z,66.70
2023-04-24T22:14:50.912Z,66.70
2023-04-24T22:17:17.497Z,66.70
2023-04-24T22:19:44.211Z,66.70
2023-04-24T22:22:10.844Z,66.70
2023-04-24T22:24:37.502Z,66.70
2023-04-24T22:27:04.196Z,66.70
2023-04-24T22:29:31.181Z,66.70
2023-04-24T22:31:58.700Z,66.70
2023-04-24T22:34:25.441Z,66.70
2023-04-24T22:36:52.592Z,66.70
2023-04-24T22:39:19.688Z,66.70
2023-04-24T22:41:46.370Z,66.70
2023-04-24T22:44:13.381Z,66.70
2023-04-24T22:46:40.398Z,66.60
2023-04-24T22:49:07.290Z,66.60
2023-04-24T22:51:35.152Z,66.70
2023-04-24T22:54:05.593Z,66.60
2023-04-24T22:56:33.577Z,66.60
2023-04-24T22:59:00.609Z,66.50
2023-04-24T23:01:27.800Z,66.50
2023-04-24T23:03:55.028Z,66.50
2023-04-24T23:06:22.046Z,66.60
2023-04-24T23:08:48.816Z,66.60
2023-04-24T23:11:15.711Z,66.50
2023-04-24T23:13:42.431Z,66.50
2023-04-24T23:16:09.253Z,66.50
2023-04-24T23:18:36.147Z,66.50
2023-04-24T23:21:03.459Z,66.50
2023-04-24T23:23:30.177Z,66.60
2023-04-24T23:25:57.088Z,66.60
2023-04-24T23:28:23.806Z,66.60
2023-04-24T23:30:50.538Z,66.50
2023-04-24T23:33:17.206Z,66.40
2023-04-24T23:35:43.936Z,66.40
2023-04-24T23:38:11.004Z,66.50
2023-04-24T23:40:37.860Z,66.40
2023-04-24T23:43:08.206Z,66.40
2023-04-24T23:45:35.613Z,66.40
2023-04-24T23:48:04.059Z,66.40
2023-04-24T23:50:30.802Z,66.50
2023-04-24T23:52:57.625Z,66.30
2023-04-24T23:55:24.475Z,66.30
2023-04-24T23:57:51.298Z,66.30
